createdAt,value
2022-12-22T00:02:00.463Z,50.38
2022-12-22T00:04:47.815Z,49.05
2022-12-22T00:07:33.734Z,47.55
2022-12-22T00:10:19.691Z,49.47
2022-12-22T00:13:05.773Z,50.35
2022-12-22T00:15:54.319Z,45.75
2022-12-22T00:18:40.257Z,42.53
2022-12-22T00:21:31.642Z,40.95
2022-12-22T00:24:20.443Z,40.55
2022-12-22T00:27:06.479Z,44.42
2022-12-22T00:29:57.942Z,44.35
2022-12-22T00:32:50.081Z,48.35
2022-12-22T00:35:43.266Z,47.35
2022-12-22T00:38:38.754Z,50.25
2022-12-22T00:41:25.397Z,43.83
2022-12-22T00:44:11.500Z,45.13
2022-12-22T00:46:59.948Z,48.33
2022-12-22T00:49:47.976Z,62.63
2022-12-22T00:52:36.600Z,55.00
2022-12-22T00:55:32.446Z,48.35
2022-12-22T00:58:19.615Z,47.83
2022-12-22T01:01:05.622Z,49.70
2022-12-22T01:03:51.658Z,50.53
2022-12-22T01:06:38.460Z,52.92
2022-12-22T01:09:25.059Z,44.67
2022-12-22T01:12:10.904Z,43.90
2022-12-22T01:14:56.852Z,43.05
2022-12-22T01:17:42.735Z,60.13
2022-12-22T01:20:29.136Z,42.30
2022-12-22T01:23:15.049Z,43.75
2022-12-22T01:26:02.211Z,42.55
2022-12-22T01:28:48.111Z,46.05
2022-12-22T01:31:49.456Z,44.63
2022-12-22T01:34:36.337Z,40.92
2022-12-22T01:37:22.352Z,39.97
2022-12-22T01:40:08.265Z,39.47
2022-12-22T01:42:54.397Z,45.33
2022-12-22T01:45:50.145Z,42.40
2022-12-22T01:48:48.238Z,46.45
2022-12-22T01:51:43.844Z,35.28
2022-12-22T01:54:31.563Z,44.28
2022-12-22T01:57:18.005Z,42.15
2022-12-22T02:00:04.127Z,43.33
2022-12-22T02:02:57.977Z,34.80
2022-12-22T02:05:44.140Z,41.13
2022-12-22T02:08:39.729Z,40.30
2022-12-22T02:11:57.147Z,39.65
2022-12-22T02:15:01.457Z,42.60
2022-12-22T02:17:57.296Z,43.55
2022-12-22T02:20:46.212Z,42.10
2022-12-22T02:24:02.479Z,41.75
2022-12-22T02:26:53.122Z,47.05
2022-12-22T02:30:01.609Z,45.70
2022-12-22T02:32:53.498Z,57.08
2022-12-22T02:35:39.729Z,56.75
2022-12-22T02:38:31.588Z,64.65
2022-12-22T02:41:55.765Z,58.45
2022-12-22T02:44:57.351Z,58.10
2022-12-22T02:48:07.082Z,48.60
2022-12-22T02:51:04.380Z,65.22
2022-12-22T02:53:51.021Z,67.15
2022-12-22T02:56:37.410Z,73.28
2022-12-22T02:59:23.339Z,57.92
2022-12-22T03:02:09.410Z,60.13
2022-12-22T03:04:55.639Z,67.38
2022-12-22T03:07:41.558Z,68.50
2022-12-22T03:10:28.200Z,58.92
2022-12-22T03:13:17.818Z,55.90
2022-12-22T03:16:04.152Z,55.85
2022-12-22T03:18:50.203Z,59.50
2022-12-22T03:21:36.163Z,80.82
2022-12-22T03:24:22.358Z,61.00
2022-12-22T03:26:49.777Z,64.05
2022-12-22T03:29:17.269Z,56.25
2022-12-22T03:31:45.014Z,72.15
2022-12-22T03:34:12.610Z,59.00
2022-12-22T03:36:40.076Z,64.55
2022-12-22T03:39:07.604Z,65.43
2022-12-22T03:41:53.594Z,63.47
2022-12-22T03:44:56.292Z,59.20
2022-12-22T03:47:23.743Z,66.72
2022-12-22T03:49:51.173Z,74.15
2022-12-22T03:52:18.609Z,71.60
2022-12-22T03:54:46.322Z,79.10
2022-12-22T03:57:13.823Z,81.03
2022-12-22T03:59:41.380Z,79.20
2022-12-22T04:02:08.873Z,91.80
2022-12-22T04:04:36.422Z,100.53
2022-12-22T04:07:04.148Z,89.78
2022-12-22T04:09:31.637Z,84.90
2022-12-22T04:12:18.121Z,87.68
2022-12-22T04:14:45.615Z,79.93
2022-12-22T04:17:13.096Z,76.30
2022-12-22T04:19:40.504Z,81.90
2022-12-22T04:22:08.060Z,76.65
2022-12-22T04:24:35.769Z,72.97
2022-12-22T04:27:03.316Z,86.10
2022-12-22T04:29:30.760Z,84.45
2022-12-22T04:31:58.318Z,87.32
2022-12-22T04:34:26.076Z,80.13
2022-12-22T04:36:53.746Z,77.30
2022-12-22T04:39:21.280Z,83.40
2022-12-22T04:41:48.805Z,79.80
2022-12-22T04:44:16.408Z,82.88
2022-12-22T04:46:43.943Z,105.38
2022-12-22T04:49:11.381Z,78.18
2022-12-22T04:51:38.848Z,66.88
2022-12-22T04:54:06.559Z,73.60
2022-12-22T04:56:34.003Z,72.13
2022-12-22T04:59:01.429Z,77.05
2022-12-22T05:01:28.864Z,71.50
2022-12-22T05:03:56.485Z,74.30
2022-12-22T05:06:23.926Z,66.72
2022-12-22T05:08:51.403Z,62.83
2022-12-22T05:11:19.008Z,64.53
2022-12-22T05:13:46.963Z,67.95
2022-12-22T05:16:16.322Z,59.72
2022-12-22T05:18:45.547Z,55.92
2022-12-22T05:21:18.732Z,64.65
2022-12-22T05:23:47.229Z,54.63
2022-12-22T05:26:15.675Z,60.38
2022-12-22T05:28:44.514Z,60.67
2022-12-22T05:31:20.291Z,57.25
2022-12-22T05:33:48.309Z,55.63
2022-12-22T05:36:15.975Z,51.85
2022-12-22T05:38:44.705Z,54.50
2022-12-22T05:41:12.221Z,54.33
2022-12-22T05:43:40.081Z,60.65
2022-12-22T05:46:10.210Z,55.72
2022-12-22T05:48:39.786Z,53.45
2022-12-22T05:51:09.272Z,62.13
2022-12-22T05:53:37.537Z,62.05
2022-12-22T05:56:05.625Z,76.90
2022-12-22T05:58:33.848Z,42.22
2022-12-22T06:03:29.940Z,71.22
2022-12-22T06:05:58.480Z,58.40
2022-12-22T06:08:26.637Z,64.65
2022-12-22T06:15:50.024Z,58.15
2022-12-22T06:18:17.605Z,72.65
2022-12-22T06:20:48.234Z,71.43
2022-12-22T06:23:15.736Z,91.18
2022-12-22T06:25:43.399Z,76.47
2022-12-22T06:28:10.865Z,64.50
2022-12-22T06:30:38.282Z,95.55
2022-12-22T06:33:05.770Z,65.25
2022-12-22T06:35:33.248Z,57.22
2022-12-22T06:38:00.655Z,54.95
2022-12-22T06:40:28.170Z,49.22
2022-12-22T06:43:10.995Z,38.08
2022-12-22T06:45:41.320Z,35.22
2022-12-22T06:48:10.556Z,43.00
2022-12-22T06:50:38.146Z,34.42
2022-12-22T06:53:06.835Z,35.05
2022-12-22T06:55:34.801Z,31.00
2022-12-22T06:58:02.547Z,28.13
2022-12-22T07:00:30.716Z,26.55
2022-12-22T07:02:58.437Z,17.33
2022-12-22T07:05:30.526Z,21.33
2022-12-22T07:08:08.155Z,25.48
2022-12-22T07:10:57.460Z,27.45
2022-12-22T07:13:28.361Z,24.23
2022-12-22T07:16:00.508Z,22.23
2022-12-22T07:18:34.316Z,28.30
2022-12-22T07:21:07.416Z,30.42
2022-12-22T07:23:35.982Z,31.98
2022-12-22T07:26:08.301Z,46.55
2022-12-22T07:28:37.668Z,36.40
2022-12-22T07:31:06.606Z,38.35
2022-12-22T07:33:34.688Z,38.92
2022-12-22T07:36:20.965Z,38.60
2022-12-22T07:38:51.336Z,36.13
2022-12-22T07:41:38.891Z,52.47
2022-12-22T07:44:07.953Z,37.40
2022-12-22T07:47:13.705Z,41.72
2022-12-22T07:50:25.063Z,49.42
2022-12-22T07:53:22.721Z,69.43
2022-12-22T07:55:50.545Z,70.05
2022-12-22T07:58:20.741Z,71.22
2022-12-22T08:00:51.035Z,78.95
2022-12-22T08:03:18.729Z,115.20
2022-12-22T08:05:46.431Z,76.57
2022-12-22T08:08:15.511Z,82.68
2022-12-22T08:10:43.137Z,90.03
2022-12-22T08:13:10.666Z,82.60
2022-12-22T08:15:38.301Z,109.78
2022-12-22T08:18:05.982Z,109.68
2022-12-22T08:20:37.960Z,108.22
2022-12-22T08:23:08.415Z,101.30
2022-12-22T08:25:36.280Z,92.57
2022-12-22T08:28:07.679Z,88.68
2022-12-22T08:30:44.946Z,86.03
2022-12-22T08:33:30.234Z,77.60
2022-12-22T08:36:05.873Z,81.93
2022-12-22T08:38:41.467Z,76.07
2022-12-22T08:41:15.236Z,77.03
2022-12-22T08:43:50.399Z,68.38
2022-12-22T08:46:18.313Z,63.28
2022-12-22T08:48:55.415Z,52.58
2022-12-22T08:52:20.680Z,67.90
2022-12-22T08:54:55.548Z,59.90
2022-12-22T08:57:24.548Z,72.90
2022-12-22T09:00:02.841Z,73.43
2022-12-22T09:02:49.859Z,74.97
2022-12-22T09:06:16.477Z,62.45
2022-12-22T09:11:22.175Z,55.45
2022-12-22T09:13:55.193Z,55.38
2022-12-22T09:16:29.051Z,33.60
2022-12-22T09:19:08.017Z,40.40
2022-12-22T09:22:01.229Z,32.80
2022-12-22T09:24:31.759Z,41.50
2022-12-22T09:27:29.719Z,39.05
2022-12-22T09:30:02.353Z,36.30
2022-12-22T09:32:37.504Z,38.05
2022-12-22T09:35:08.123Z,36.03
2022-12-22T09:37:46.956Z,41.25
2022-12-22T09:40:14.694Z,35.45
2022-12-22T09:42:46.141Z,35.53
2022-12-22T09:45:44.889Z,33.38
2022-12-22T09:48:44.637Z,33.03
2022-12-22T09:51:22.743Z,33.38
2022-12-22T09:54:03.199Z,39.03
2022-12-22T09:56:47.169Z,35.15
2022-12-22T10:00:04.456Z,31.67
2022-12-22T10:02:54.359Z,27.70
2022-12-22T10:05:42.762Z,31.15
2022-12-22T10:08:34.332Z,24.35
2022-12-22T10:11:15.228Z,21.02
2022-12-22T10:13:49.211Z,32.95
2022-12-22T10:16:31.582Z,23.67
2022-12-22T10:19:39.776Z,22.73
2022-12-22T10:25:05.809Z,24.65
2022-12-22T10:27:43.123Z,30.80
2022-12-22T10:30:33.070Z,29.20
2022-12-22T10:33:24.437Z,23.15
2022-12-22T10:36:07.846Z,29.23
2022-12-22T10:39:11.362Z,27.35
2022-12-22T10:41:59.960Z,32.67
2022-12-22T10:44:47.761Z,39.53
2022-12-22T10:47:36.999Z,41.78
2022-12-22T10:50:38.257Z,50.22
2022-12-22T10:53:48.493Z,60.33
2022-12-22T10:56:48.028Z,49.58
2022-12-22T10:59:45.280Z,53.15
2022-12-22T11:02:54.690Z,65.18
2022-12-22T11:05:58.630Z,63.20
2022-12-22T11:09:31.364Z,55.38
2022-12-22T11:12:08.367Z,59.75
2022-12-22T11:15:36.728Z,50.85
2022-12-22T11:18:30.109Z,71.18
2022-12-22T11:21:35.362Z,67.97
2022-12-22T11:24:38.268Z,69.10
2022-12-22T11:27:25.970Z,65.20
2022-12-22T11:30:10.188Z,59.63
2022-12-22T11:33:04.117Z,65.35
2022-12-22T11:35:40.727Z,57.60
2022-12-22T11:42:17.794Z,51.70
2022-12-22T11:45:42.871Z,53.38
2022-12-22T11:48:50.141Z,52.60
2022-12-22T11:52:36.787Z,48.88
2022-12-22T11:55:38.755Z,61.25
2022-12-22T11:59:01.285Z,54.05
2022-12-22T12:01:55.106Z,51.47
2022-12-22T12:05:04.534Z,52.00
2022-12-22T12:10:44.624Z,38.05
2022-12-22T12:14:05.491Z,31.33
2022-12-22T12:17:19.076Z,34.42
2022-12-22T12:20:27.977Z,40.00
2022-12-22T12:24:06.102Z,35.50
2022-12-22T12:27:05.907Z,34.28
2022-12-22T12:33:24.685Z,37.72
2022-12-22T12:36:22.573Z,39.10
2022-12-22T12:39:10.179Z,36.42
2022-12-22T12:42:03.878Z,42.80
2022-12-22T12:44:38.971Z,42.28
2022-12-22T12:47:31.541Z,38.17
2022-12-22T12:50:35.478Z,37.92
2022-12-22T12:53:11.040Z,47.85
2022-12-22T12:55:39.263Z,42.22
2022-12-22T13:00:58.601Z,44.58
2022-12-22T13:04:04.940Z,53.28
2022-12-22T13:06:51.978Z,39.67
2022-12-22T13:09:50.362Z,53.72
2022-12-22T13:12:48.629Z,49.83
2022-12-22T13:15:32.862Z,34.70
2022-12-22T13:18:31.841Z,39.53
2022-12-22T13:21:52.303Z,49.38
2022-12-22T13:24:35.072Z,45.20
2022-12-22T13:27:12.444Z,54.00
2022-12-22T13:29:47.486Z,50.92
2022-12-22T13:32:45.974Z,49.83
2022-12-22T13:35:43.066Z,56.28
2022-12-22T13:38:35.592Z,58.97
2022-12-22T13:41:22.900Z,45.55
2022-12-22T13:44:03.545Z,59.30
2022-12-22T13:46:34.604Z,56.53
2022-12-22T13:49:07.791Z,46.58
2022-12-22T13:51:38.427Z,44.95
2022-12-22T13:54:11.228Z,50.88
2022-12-22T13:59:55.487Z,42.13
2022-12-22T14:02:27.823Z,44.58
2022-12-22T14:05:31.891Z,47.25
2022-12-22T14:08:05.893Z,46.25
2022-12-22T14:11:11.641Z,44.05
2022-12-22T14:13:48.509Z,39.92
2022-12-22T14:16:16.184Z,37.92
2022-12-22T14:18:43.805Z,49.03
2022-12-22T14:21:12.741Z,46.60
2022-12-22T14:23:42.618Z,47.35
2022-12-22T14:26:17.690Z,39.67
2022-12-22T14:28:53.302Z,47.05
2022-12-22T14:31:25.545Z,39.95
2022-12-22T14:37:55.801Z,48.25
2022-12-22T14:40:34.898Z,52.00
2022-12-22T14:43:05.405Z,46.38
2022-12-22T14:45:33.577Z,47.90
2022-12-22T14:50:29.447Z,35.70
2022-12-22T14:53:02.274Z,43.13
2022-12-22T14:55:37.678Z,37.08
2022-12-22T14:58:10.373Z,36.05
2022-12-22T15:00:43.728Z,41.97
2022-12-22T15:03:32.583Z,42.70
2022-12-22T15:06:27.482Z,38.03
2022-12-22T15:09:47.148Z,44.60
2022-12-22T15:12:15.525Z,38.10
2022-12-22T15:14:43.205Z,40.03
2022-12-22T15:17:23.769Z,39.63
2022-12-22T15:19:54.576Z,36.63
2022-12-22T15:22:23.357Z,36.83
2022-12-22T15:24:50.982Z,39.70
2022-12-22T15:27:18.399Z,35.45
2022-12-22T15:29:45.852Z,40.63
2022-12-22T15:32:13.868Z,33.55
2022-12-22T15:34:41.533Z,39.30
2022-12-22T15:37:12.005Z,30.98
2022-12-22T15:39:40.360Z,33.35
2022-12-22T15:42:07.859Z,39.30
2022-12-22T15:44:38.700Z,36.65
2022-12-22T15:47:09.881Z,47.60
2022-12-22T15:49:37.370Z,54.80
2022-12-22T15:52:06.229Z,58.33
2022-12-22T15:54:33.808Z,51.97
2022-12-22T15:57:01.898Z,57.10
2022-12-22T16:02:01.400Z,62.25
2022-12-22T16:04:29.759Z,70.63
2022-12-22T16:06:59.116Z,56.28
2022-12-22T16:09:32.464Z,74.15
2022-12-22T16:12:00.137Z,81.72
2022-12-22T16:14:31.190Z,81.05
2022-12-22T16:17:01.321Z,79.45
2022-12-22T16:19:28.734Z,79.85
2022-12-22T16:21:56.306Z,78.88
2022-12-22T16:24:29.568Z,96.95
2022-12-22T16:26:57.919Z,87.32
2022-12-22T16:29:26.596Z,77.70
2022-12-22T16:32:18.418Z,91.32
2022-12-22T16:34:45.973Z,84.47
2022-12-22T16:37:13.442Z,93.20
2022-12-22T16:39:41.120Z,92.78
2022-12-22T16:45:05.512Z,93.47
2022-12-22T16:47:36.082Z,100.32
2022-12-22T16:50:03.870Z,89.07
2022-12-22T16:52:42.537Z,99.25
2022-12-22T16:55:21.805Z,100.57
2022-12-22T16:57:49.321Z,89.40
2022-12-22T17:00:21.226Z,98.03
2022-12-22T17:02:52.800Z,103.22
2022-12-22T17:05:51.614Z,86.28
2022-12-22T17:08:25.888Z,99.97
2022-12-22T17:10:55.045Z,83.88
2022-12-22T17:13:22.742Z,93.03
2022-12-22T17:15:50.288Z,81.72
2022-12-22T17:18:22.561Z,81.47
2022-12-22T17:20:54.601Z,73.63
2022-12-22T17:23:43.068Z,83.53
2022-12-22T17:26:14.633Z,89.03
2022-12-22T17:28:43.129Z,82.05
2022-12-22T17:31:22.494Z,89.88
2022-12-22T17:33:50.276Z,73.10
2022-12-22T17:36:24.984Z,74.93
2022-12-22T17:38:52.489Z,84.20
2022-12-22T17:41:20.271Z,98.55
2022-12-22T17:43:47.899Z,66.28
2022-12-22T17:46:19.410Z,93.90
2022-12-22T17:48:47.631Z,94.40
2022-12-22T17:51:23.997Z,81.15
2022-12-22T17:53:52.725Z,76.75
2022-12-22T17:56:23.124Z,98.40
2022-12-22T17:58:51.248Z,70.20
2022-12-22T18:01:26.368Z,84.13
2022-12-22T18:03:55.019Z,73.15
2022-12-22T18:06:26.442Z,70.72
2022-12-22T18:08:54.982Z,79.30
2022-12-22T18:11:23.839Z,86.97
2022-12-22T18:13:52.884Z,85.50
2022-12-22T18:16:22.921Z,89.78
2022-12-22T18:18:50.493Z,95.05
2022-12-22T18:21:23.415Z,84.32
2022-12-22T18:23:51.973Z,89.40
2022-12-22T18:26:28.724Z,80.72
2022-12-22T18:28:56.555Z,89.68
2022-12-22T18:31:25.103Z,86.57
2022-12-22T18:33:53.351Z,81.82
2022-12-22T18:38:53.109Z,82.72
2022-12-22T18:41:24.320Z,77.07
2022-12-22T18:43:52.251Z,78.28
2022-12-22T18:46:20.430Z,84.15
2022-12-22T18:48:48.326Z,70.20
2022-12-22T18:51:19.418Z,87.35
2022-12-22T18:53:47.492Z,83.78
2022-12-22T18:56:15.269Z,83.00
2022-12-22T18:58:42.908Z,79.10
2022-12-22T19:01:20.633Z,88.05
2022-12-22T19:03:49.942Z,67.93
2022-12-22T19:06:21.959Z,76.93
2022-12-22T19:08:49.818Z,67.97
2022-12-22T19:11:21.568Z,65.65
2022-12-22T19:13:51.592Z,62.95
2022-12-22T19:16:24.415Z,59.70
2022-12-22T19:18:52.074Z,69.75
2022-12-22T19:21:19.807Z,64.85
2022-12-22T19:23:48.139Z,54.58
2022-12-22T19:28:57.327Z,49.42
2022-12-22T19:31:27.074Z,53.33
2022-12-22T19:33:57.215Z,46.42
2022-12-22T19:36:27.376Z,47.90
2022-12-22T19:39:03.443Z,44.45
2022-12-22T19:41:40.461Z,42.13
2022-12-22T19:44:28.415Z,46.42
2022-12-22T19:49:27.347Z,44.25
2022-12-22T19:51:58.210Z,46.97
2022-12-22T19:54:25.751Z,46.00
2022-12-22T19:56:55.569Z,44.72
2022-12-22T19:59:39.001Z,41.65
2022-12-22T20:02:30.158Z,52.75
2022-12-22T20:05:00.206Z,34.88
2022-12-22T20:07:29.800Z,48.97
2022-12-22T20:09:57.333Z,41.00
2022-12-22T20:12:34.421Z,41.72
2022-12-22T20:15:15.340Z,48.10
2022-12-22T20:17:42.840Z,40.30
2022-12-22T20:20:15.666Z,38.45
2022-12-22T20:22:46.865Z,36.15
2022-12-22T20:25:16.271Z,35.28
2022-12-22T20:27:44.347Z,44.28
2022-12-22T20:30:23.259Z,36.15
2022-12-22T20:32:51.256Z,33.25
2022-12-22T20:35:18.957Z,38.03
2022-12-22T20:37:46.343Z,35.95
2022-12-22T20:40:31.278Z,37.10
2022-12-22T20:42:58.790Z,34.50
2022-12-22T20:45:29.452Z,28.80
2022-12-22T20:47:59.418Z,28.98
2022-12-22T20:50:30.339Z,30.88
2022-12-22T20:52:57.940Z,28.48
2022-12-22T20:55:28.359Z,36.58
2022-12-22T20:57:56.029Z,25.58
2022-12-22T21:00:27.278Z,22.65
2022-12-22T21:02:55.644Z,16.48
2022-12-22T21:05:23.492Z,20.15
2022-12-22T21:07:50.956Z,24.35
2022-12-22T21:10:21.560Z,26.35
2022-12-22T21:12:49.996Z,28.60
2022-12-22T21:15:26.178Z,22.50
2022-12-22T21:17:58.167Z,29.55
2022-12-22T21:20:28.982Z,27.92
2022-12-22T21:22:56.509Z,30.65
2022-12-22T21:25:25.096Z,19.85
2022-12-22T21:27:52.813Z,21.52
2022-12-22T21:30:23.229Z,17.83
2022-12-22T21:32:51.798Z,20.77
2022-12-22T21:35:23.240Z,20.83
2022-12-22T21:37:52.418Z,15.30
2022-12-22T21:40:26.729Z,17.00
2022-12-22T21:42:54.953Z,17.63
2022-12-22T21:45:26.780Z,20.48
2022-12-22T21:47:54.333Z,20.10
2022-12-22T21:50:25.879Z,13.43
2022-12-22T21:52:53.696Z,9.73
2022-12-22T21:55:32.086Z,11.80
2022-12-22T21:58:00.409Z,10.27
2022-12-22T22:05:28.962Z,8.88
2022-12-22T22:07:57.856Z,6.18
2022-12-22T22:10:28.068Z,7.30
2022-12-22T22:12:55.685Z,5.82
2022-12-22T22:15:25.167Z,4.97
2022-12-22T22:17:52.909Z,5.55
2022-12-22T22:20:23.446Z,4.97
2022-12-22T22:22:52.390Z,3.40
2022-12-22T22:25:20.661Z,5.28
2022-12-22T22:27:48.952Z,5.30
2022-12-22T22:32:48.914Z,7.32
2022-12-22T22:35:18.406Z,4.28
2022-12-22T22:37:50.444Z,5.60
2022-12-22T22:40:21.039Z,7.28
2022-12-22T22:42:49.100Z,7.93
2022-12-22T22:45:23.757Z,7.15
2022-12-22T22:47:52.834Z,6.43
2022-12-22T22:50:22.272Z,5.20
2022-12-22T22:52:49.878Z,2.92
2022-12-22T22:55:17.684Z,5.35
2022-12-22T22:57:45.431Z,4.10
2022-12-22T23:00:15.302Z,3.70
2022-12-22T23:02:43.751Z,4.05
2022-12-22T23:05:16.915Z,3.90
2022-12-22T23:07:48.021Z,3.70
2022-12-22T23:10:15.649Z,4.28
2022-12-22T23:12:43.095Z,3.25
2022-12-22T23:15:10.990Z,4.35
2022-12-22T23:17:38.412Z,2.88
2022-12-22T23:20:06.524Z,3.13
2022-12-22T23:22:33.979Z,2.90
2022-12-22T23:25:01.553Z,5.30
2022-12-22T23:27:30.463Z,4.35
2022-12-22T23:29:57.951Z,6.50
2022-12-22T23:32:25.508Z,5.20
2022-12-22T23:34:53.181Z,7.35
2022-12-22T23:37:20.612Z,7.32
2022-12-22T23:39:48.034Z,5.53
2022-12-22T23:42:15.476Z,3.60
2022-12-22T23:44:42.961Z,4.45
2022-12-22T23:47:10.408Z,4.18
2022-12-22T23:49:37.853Z,3.25
2022-12-22T23:52:05.296Z,2.90
2022-12-22T23:54:32.831Z,4.10
2022-12-22T23:57:00.277Z,2.58
2022-12-22T23:59:28.775Z,2.78
